Saint-Sauveur, Quebec

4:45 PM EST on February 14, 2016 (GMT -0500)
Saint-Sauveur, QUEBEC, CANADA | | Change Station
CLOSE
Current Station
Personal Weather Station
Location: Saint-Sauveur, QUéBEC
Elevation: 1107 ft
Nearby Weather Stations

Elev 1107 ft 45.87 °N, 74.17 °W | Updated 6 minutes ago

Low Drifting Snow
Low Drifting Snow
-3.6 °F
Feels Like -17 °F
N
7.0
Wind Variable Wind from SW
Gusts 7.0 mph

Today
High -- | Low -- °F
--% Chance of Precip.
Yesterday
High -- | Low -- °F
Precip. -- in
Pressure 30.50 in
Visibility 40.0 miles
Clouds Few 3000 ft
Few 24000 ft
Windchill -17 °F
Dew Point -16 °F
Humidity 54%
Rainfall 0.00 in
Snow Depth Not available.
7:01 AM 5:20 PM
Waxing Crescent, 45% visible
METAR CYMX 142100Z 24012G21KT 220V280 40SM DRSN FEW030 FEW240 M20/M29 A3046 RMK CF1CI1 CF TR CI TR SLP327
Pressure 30.50 in
Visibility 40.0 miles
Clouds Few 3000 ft
Few 24000 ft
Windchill -17 °F
Dew Point -16 °F
Humidity 54%
Rainfall 0.00 in
Snow Depth Not available.
7:01 AM 5:20 PM
Waxing Crescent, 45% visible
METAR CYMX 142100Z 24012G21KT 220V280 40SM DRSN FEW030 FEW240 M20/M29 A3046 RMK CF1CI1 CF TR CI TR SLP327

10-Day Weather Forecast

Almanac

Astronomy

Feb. 14, 2016 Rise Set
Actual Time
Civil Twilight
Nautical Twilight
Astronomical Twilight
Moon
Length of Visible Light
Length of Day
Tomorrow will be .
, % of the Moon is Illuminated

Today's Extremes

Country Highs Country Lows

Community

WunderPhotos

Upload Photos

1,892,890 photos uploaded!

WunderBlog® & News

Nearby

Air Quality

  Air Quality AQ Index Pollutant
Not available.

Snow Depth

Station Depth Elevation

Earthquake Activity

City Distance Mag. Time & Date
Minimum magnitude displayed is 2.5.

Coastal Water Temperatures

Place Temperature

Stations

Nearby Weather Stations

Station Location Temp. Windchill Dew Point Humidity Wind Precip. Elev Updated Type
                   

Watches & Warnings

There are currently no watches in effect.